Flight Track Log - Related Links

Times and Time Zones

All times are in EDT time to prevent confusion due to time zone crossing. See the N469S flight status page for this flight to view local times or setup timezone preferences in your user account.

Time Position Orientation Groundspeed Altitude Reporting Facility
EDT Latitude Longitude Course Direction KTS MPH feet Rate Location/Type
Thu 06:10:29 PM 33.5353 -86.8225 250° West 117 135 2,300  Level Atlanta Center
Thu 06:11:36 PM 33.5447 -86.8628 286° West 117 135 3,000 397 Climbing Atlanta Center
Thu 06:12:30 PM 33.5564 -86.9031 289° West 146 168 3,100 55 Climbing Atlanta Center
Thu 06:13:25 PM 33.5806 -86.9411 307° West 161 185 3,100  Level Atlanta Center
Thu 06:14:25 PM 33.6067 -86.9869 304° West 158 182 3,100  Level Atlanta Center
Thu 06:15:26 PM 33.6306 -87.0303 304° West 159 183 3,100  Level Atlanta Center
Thu 06:16:26 PM 33.6547 -87.0711 305° West 155 178 3,100 198 Level Atlanta Center
Thu 06:17:27 PM 33.6767 -87.1117 303° West 148 170 3,500 639 Climbing Atlanta Center
Thu 06:18:28 PM 33.7008 -87.1425 313° West 107 123 4,400 744 Climbing Atlanta Center
Thu 06:19:28 PM 33.7303 -87.1336 14° North 116 133 5,000 744 Climbing Atlanta Center
Thu 06:20:29 PM 33.7619 -87.1222 17° North 117 135 5,900 844 Climbing Atlanta Center
Thu 06:21:36 PM 33.7978 -87.1111 14° North 112 129 6,800 803 Climbing Atlanta Center
Thu 06:22:36 PM 33.8272 -87.0994 18° North 114 131 7,600 626 Climbing Atlanta Center
Thu 06:23:31 PM 33.8586 -87.0931 10° North 120 138 8,000 261 Climbing Atlanta Center
Thu 06:24:31 PM 33.8986 -87.0794 16° North 155 178 8,100 446 Climbing Atlanta Center
Thu 06:25:32 PM 33.9406 -87.0786 North 154 177 8,900 680 Climbing Atlanta Center
Thu 06:26:08 PM 33.9614 -87.0692 21° North 192 221 9,200 556 Climbing Atlanta Center
Thu 06:26:26 PM 33.9719 -87.0672 North 126 145 9,400 600 Climbing Atlanta Center
Thu 06:27:08 PM 33.9931 -87.0603 15° North 152 175 9,800 627 Climbing Atlanta Center
Thu 06:27:33 PM 34.0097 -87.0583 North 124 143 10,100 500 Climbing Atlanta Center
Thu 06:29:32 PM 34.0778 -87.0269 21° North 134 154 11,000 302 Climbing Memphis Center
Thu 06:30:32 PM 34.1214 -87.0103 18° North 140 161 11,000 150 Level Memphis Center
Thu 06:31:32 PM 34.1692 -87.0033 North 158 182 11,300 650 Climbing Memphis Center
Thu 06:32:32 PM 34.2083 -86.9917 14° North 158 182 12,300 750 Climbing Memphis Center
Thu 06:33:32 PM 34.2478 -86.9853 North 141 162 12,800 550 Climbing Memphis Center
Thu 06:34:32 PM 34.2875 -86.9811 North 141 162 13,400 550 Climbing Memphis Center
Thu 06:35:32 PM 34.3247 -86.9694 15° North 141 162 13,900 450 Climbing Memphis Center
Thu 06:36:32 PM 34.3661 -86.9578 13° North 141 162 14,300 450 Climbing Memphis Center
Thu 06:37:32 PM 34.4053 -86.9461 14° North 141 162 14,800 350 Climbing Memphis Center
Thu 06:38:32 PM 34.4447 -86.9344 14° North 141 162 15,000 100 Climbing Memphis Center
Thu 06:39:32 PM 34.4903 -86.9253 North 147 169 15,000  Level Memphis Center
Thu 06:40:32 PM 34.5358 -86.9133 12° North 153 176 15,000  Level Memphis Center
Thu 06:41:32 PM 34.5836 -86.9011 12° North 164 189 15,000  Level Memphis Center
Thu 06:42:32 PM 34.6314 -86.8917 North 169 194 15,000  Level Memphis Center
Thu 06:43:32 PM 34.6792 -86.8822 North 169 194 15,000  Level Memphis Center
Thu 06:44:32 PM 34.7267 -86.8700 12° North 169 194 15,000 -50 Level Memphis Center
Thu 06:45:32 PM 34.7767 -86.8631 North 169 194 14,900 -50 Descending Memphis Center
Thu 06:46:32 PM 34.8242 -86.8483 14° North 169 194 14,900  Level Memphis Center
Thu 06:47:32 PM 34.8717 -86.8361 12° North 169 194 14,900  Level Memphis Center
Thu 06:48:32 PM 34.9153 -86.8217 15° North 169 194 14,900  Level Memphis Center
Thu 06:49:32 PM 34.9647 -86.8069 14° North 169 194 14,900  Level Memphis Center
Thu 06:50:32 PM 35.0125 -86.7922 14° North 169 194 14,900  Level Memphis Center
Thu 06:51:32 PM 35.0600 -86.7828 North 169 194 14,900  Level Memphis Center
Thu 06:52:32 PM 35.1056 -86.7706 12° North 169 194 14,900  Level Memphis Center
Thu 06:53:32 PM 35.1492 -86.7611 10° North 169 194 14,900  Level Memphis Center
Thu 06:54:32 PM 35.1947 -86.7489 12° North 164 189 14,900  Level Memphis Center
Thu 06:55:32 PM 35.2444 -86.7367 11° North 169 194 14,900  Level Memphis Center
Thu 06:56:32 PM 35.2942 -86.7269 North 175 201 14,900  Level Memphis Center
Thu 06:57:32 PM 35.3439 -86.7119 14° North 181 208 14,900 50 Level Memphis Center
Thu 06:58:32 PM 35.3914 -86.6972 14° North 181 208 15,000 50 Climbing Memphis Center
Thu 06:59:32 PM 35.4411 -86.6872 North 176 203 15,000  Level Memphis Center
Thu 07:00:32 PM 35.4950 -86.6722 13° North 181 208 15,000  Level Memphis Center
Thu 07:01:32 PM 35.5344 -86.6653 North 181 208 15,000  Level Memphis Center
Thu 07:02:32 PM 35.5925 -86.6550 North 176 203 15,000  Level Memphis Center
Thu 07:03:32 PM 35.6403 -86.6478 North 181 208 15,000  Level Memphis Center
Thu 07:04:32 PM 35.6897 -86.6356 11° North 181 208 15,000  Level Memphis Center
Thu 07:05:32 PM 35.7375 -86.6256 10° North 181 208 15,000  Level Memphis Center
Thu 07:06:32 PM 35.7894 -86.6156 North 181 208 15,000  Level Memphis Center
Thu 07:07:32 PM 35.8367 -86.5981 17° North 181 208 15,000  Level Memphis Center
Thu 07:08:32 PM 35.8883 -86.5828 13° North 181 208 15,000  Level Memphis Center
Thu 07:09:32 PM 35.9361 -86.5706 12° North 181 208 15,000  Level Memphis Center
Thu 07:10:32 PM 35.9878 -86.5553 13° North 181 208 15,000  Level Memphis Center
Thu 07:11:32 PM 36.0311 -86.5403 16° North 181 208 15,000  Level Memphis Center
Thu 07:12:32 PM 36.0828 -86.5250 13° North 181 208 15,000  Level Memphis Center
Thu 07:13:32 PM 36.1322 -86.5075 16° North 181 208 15,000  Level Memphis Center
Thu 07:14:32 PM 36.1817 -86.4922 14° North 195 224 15,000  Level Memphis Center
Thu 07:15:32 PM 36.2333 -86.4769 13° North 202 232 15,000  Level Memphis Center
Thu 07:16:32 PM 36.2828 -86.4592 16° North 197 227 15,000  Level Memphis Center
Thu 07:17:32 PM 36.3344 -86.4464 11° North 191 220 15,000  Level Memphis Center
Thu 07:18:32 PM 36.3822 -86.4389 North 180 207 15,000  Level Memphis Center
Thu 07:19:32 PM 36.4339 -86.4286 North 180 207 15,000  Level Memphis Center
Thu 07:20:32 PM 36.4878 -86.4156 11° North 180 207 15,000  Level Memphis Center
Thu 07:21:32 PM 36.5375 -86.4031 11° North 180 207 15,000  Level Memphis Center
Thu 07:22:32 PM 36.5872 -86.3928 North 180 207 15,000  Level Memphis Center
Thu 07:23:32 PM 36.6367 -86.3800 12° North 180 207 15,000  Level Memphis Center
Thu 07:24:32 PM 36.6864 -86.3672 12° North 180 207 15,000  Level Memphis Center
Thu 07:25:32 PM 36.7361 -86.3569 North 180 207 15,000  Level Memphis Center
Thu 07:26:32 PM 36.7836 -86.3417 14° North 180 207 15,000  Level Memphis Center
Thu 07:27:32 PM 36.8331 -86.3286 12° North 180 207 15,000  Level Memphis Center
Thu 07:28:32 PM 36.8828 -86.3183 North 180 207 15,000  Level Memphis Center
Thu 07:29:01 PM 36.8994 -86.3125 16° North 182 209 15,000  Level Indianapolis Center
Thu 07:30:03 PM 36.9553 -86.2978 12° North 176 203 15,000  Level Indianapolis Center
Thu 07:31:05 PM 37.0028 -86.2858 11° North 174 200 15,000  Level Indianapolis Center
Thu 07:32:07 PM 37.0522 -86.2739 11° North 178 205 15,000  Level Indianapolis Center
Thu 07:33:08 PM 37.1011 -86.2631 10° North 178 205 15,000  Level Indianapolis Center
Thu 07:34:10 PM 37.1503 -86.2503 12° North 178 205 15,000  Level Indianapolis Center
Thu 07:35:12 PM 37.1983 -86.2364 13° North 176 203 15,000  Level Indianapolis Center
Thu 07:36:14 PM 37.2467 -86.2236 12° North 176 203 15,000  Level Indianapolis Center
Thu 07:37:16 PM 37.2942 -86.2131 10° North 173 199 15,000  Level Indianapolis Center
Thu 07:38:18 PM 37.3503 -86.2003 10° North 175 201 15,000  Level Indianapolis Center
Thu 07:39:19 PM 37.3969 -86.1911 North 171 197 15,000  Level Indianapolis Center
Thu 07:40:21 PM 37.4442 -86.1803 10° North 170 196 15,000  Level Indianapolis Center
Thu 07:41:23 PM 37.4911 -86.1703 10° North 171 197 15,000  Level Indianapolis Center
Thu 07:42:25 PM 37.5381 -86.1567 13° North 171 197 15,000  Level Indianapolis Center
Thu 07:43:27 PM 37.5839 -86.1431 13° North 174 200 15,000  Level Indianapolis Center
Thu 07:44:28 PM 37.6297 -86.1283 14° North 171 197 15,000  Level Indianapolis Center
Thu 07:45:30 PM 37.6761 -86.1153 13° North 170 196 15,000  Level Indianapolis Center
Thu 07:46:32 PM 37.7317 -86.0983 14° North 170 196 15,000  Level Indianapolis Center
Thu 07:47:34 PM 37.7783 -86.0847 13° North 172 198 15,000  Level Indianapolis Center
Thu 07:48:36 PM 37.8244 -86.0717 13° North 170 196 15,000  Level Indianapolis Center
Thu 07:49:37 PM 37.8711 -86.0583 13° North 170 196 15,000  Level Indianapolis Center
Thu 07:50:39 PM 37.9183 -86.0453 12° North 173 199 15,000  Level Indianapolis Center
Thu 07:51:41 PM 37.9650 -86.0294 15° North 173 199 15,000  Level Indianapolis Center
Thu 07:52:42 PM 38.0119 -86.0167 12° North 172 198 15,000  Level Indianapolis Center
Thu 07:53:44 PM 38.0583 -86.0036 12° North 170 196 15,000  Level Indianapolis Center
Thu 07:54:46 PM 38.1139 -85.9892 12° North 170 196 15,000  Level Indianapolis Center
Thu 07:55:47 PM 38.1614 -85.9761 12° North 173 199 15,000  Level Indianapolis Center
Thu 07:56:49 PM 38.2078 -85.9642 11° North 171 197 15,000  Level Indianapolis Center
Thu 07:57:51 PM 38.2550 -85.9511 12° North 173 199 15,000  Level Indianapolis Center
Thu 07:58:52 PM 38.3011 -85.9375 13° North 171 197 15,000  Level Indianapolis Center
Thu 08:02:59 PM 38.4900 -85.8842 12° North 164 189 15,000  Level Indianapolis Center
Thu 08:04:01 PM 38.5358 -85.8728 11° North 165 190 15,000  Level Indianapolis Center
Thu 08:05:03 PM 38.5803 -85.8594 13° North 165 190 15,000  Level Indianapolis Center
Thu 08:06:04 PM 38.6250 -85.8464 13° North 164 189 15,000  Level Indianapolis Center
Thu 08:07:06 PM 38.6689 -85.8358 11° North 163 188 15,000 -242 Level Indianapolis Center
Thu 08:08:08 PM 38.7156 -85.8281 North 166 191 14,500 -488 Descending Indianapolis Center
Thu 08:09:09 PM 38.7664 -85.8225 North 180 207 14,000 -683 Descending Indianapolis Center
Thu 08:10:11 PM 38.8272 -85.8153 North 183 211 13,100 -823 Descending Indianapolis Center
Thu 08:11:13 PM 38.8803 -85.8114 North 189 217 12,300 -532 Descending Indianapolis Center
Thu 08:12:15 PM 38.9308 -85.8036 North 185 213 12,000 -146 Descending Indianapolis Center
Thu 08:13:16 PM 38.9758 -85.7950 North 167 192 12,000  Level Indianapolis Center
Thu 08:14:18 PM 39.0203 -85.7883 North 163 188 12,000  Level Indianapolis Center
Thu 08:15:20 PM 39.0636 -85.7850 North 157 181 12,000  Level Indianapolis Center
Thu 08:16:21 PM 39.1072 -85.7767 North 159 183 12,000 -341 Level Indianapolis Center
Thu 08:17:23 PM 39.1633 -85.7764 360° North 166 191 11,300 -726 Descending Indianapolis Center
Thu 08:18:25 PM 39.2142 -85.7861 352° North 182 209 10,500 -774 Descending Indianapolis Center
Thu 08:19:27 PM 39.2625 -85.7953 352° North 177 204 9,700 -732 Descending Indianapolis Center
Thu 08:20:28 PM 39.3131 -85.8022 354° North 182 209 9,000 -829 Descending Indianapolis Center
Thu 08:21:30 PM 39.3617 -85.8167 347° North 180 207 8,000 -871 Descending Indianapolis Center
Thu 08:22:32 PM 39.4136 -85.8253 353° North 186 214 7,200 -732 Descending Indianapolis Center
Thu 08:23:33 PM 39.4639 -85.8378 349° North 186 214 6,500 -732 Descending Indianapolis Center
Thu 08:24:35 PM 39.5203 -85.8528 348° North 177 204 5,700 -726 Descending Indianapolis Center
Thu 08:25:37 PM 39.5656 -85.8589 354° North 171 197 5,000 -435 Descending Indianapolis Center
Thu 08:26:39 PM 39.6078 -85.8639 322° Northwest 168 193 4,800 -194 Descending Indianapolis Center
Thu 08:27:00 PM 39.6327 -85.8681 322° Northwest  Level Estimated

Login

Don't have an account? Register now (free) for customized features, flight alerts, and more!